Curry, Indiana
Current Conditions -  °F | °C
As of 1:53 PM on Tuesday 27 Jan 2015 (Local Time) from KHUF Reporting Station
Overcast Overcast  
Wind Chill: 25°   Ceiling: 1500
Heat Index: 31°   Visibility: 10mi
Dew Point: 26°   Wind: 6mph
Humidity: 82%   Direction: 350°N
Pressure: 30.13"   Gusts: NA
Location:  39.2094°N, 87.3438°W
Report Text: KHUF 271853Z 35005KT 10SM BKN015 OVC021 M01/M03 A3013 RMK AO2 SLP210 T10061033
Loading
Personal Weather Stations






























Interactive Weather Map New forecast layout! Learn more

10-Day Weather Forecast

Advertisements
Track Severe Weather on mobile